This is the latest recevied weather packets stored in our database for station/object HA3YA-WX. If no packets are shown the sender has not sent any weather packets the latest 10 day(s).
| Time | Temp. | Humidity | Pressure | Rain* | Wind** | Luminosity | Snow |
|---|---|---|---|---|---|---|---|
| 1788098755 | 31.11° C | 66% | 1002.4 hPa | - | - | - | - |
| 1788098155 | 31.11° C | 66% | 1002 hPa | - | - | - | - |
| 1788097555 | 31.11° C | 67% | 1002 hPa | - | - | - | - |
| 1788096954 | 31.11° C | 67% | 1002 hPa | - | - | - | - |
| 1788096354 | 31.67° C | 64% | 1002.9 hPa | - | - | - | - |
| 1788095754 | 32.78° C | 61% | 1002.9 hPa | - | - | - | - |
| 1788095155 | 32.22° C | 63% | 1003 hPa | - | - | - | - |
| 1788093955 | 31.67° C | 63% | 1003 hPa | - | - | - | - |
| 1788093354 | 31.67° C | 61% | 1003.3 hPa | - | - | - | - |
| 1788092754 | 31.11° C | 63% | 1003.3 hPa | - | - | - | - |
| 1788092154 | 30.56° C | 63% | 1003 hPa | - | - | - | - |
| 1788091554 | 30.56° C | 62% | 1003 hPa | - | - | - | - |
| 1788090955 | 30.56° C | 62% | 1003 hPa | - | - | - | - |
| 1788090354 | 30.56° C | 62% | 1003 hPa | - | - | - | - |
| 1788089754 | 30° C | 63% | 1003 hPa | - | - | - | - |
| 1788089154 | 30° C | 61% | 1003 hPa | - | - | - | - |
| 1788088554 | 31.11° C | 58% | 1003 hPa | - | - | - | - |
| 1788087954 | 31.11° C | 56% | 1004 hPa | - | - | - | - |
| 1788087354 | 31.11° C | 57% | 1004 hPa | - | - | - | - |
| 1788086754 | 31.11° C | 57% | 1004 hPa | - | - | - | - |
| 1788086154 | 30.56° C | 62% | 1004.3 hPa | - | - | - | - |
| 1788085554 | 30° C | 62% | 1004 hPa | - | - | - | - |
| 1788084954 | 30° C | 62% | 1004 hPa | - | - | - | - |
| 1788084354 | 30° C | 62% | 1004 hPa | - | - | - | - |
| 1788083754 | 29.44° C | 65% | 1004 hPa | - | - | - | - |
* Rain since midnight (hover to see other rain measurements)
** Current wind speed in m/s (hover to see current wind gust speed)